createdAt,value
2023-04-20T00:02:20.284Z,17.30
2023-04-20T00:04:49.656Z,17.20
2023-04-20T00:07:17.820Z,17.20
2023-04-20T00:09:49.112Z,17.10
2023-04-20T00:12:17.823Z,17.10
2023-04-20T00:14:46.055Z,17.10
2023-04-20T00:17:14.157Z,17.10
2023-04-20T00:19:41.861Z,17.10
2023-04-20T00:22:13.231Z,17.10
2023-04-20T00:24:40.873Z,17.00
2023-04-20T00:27:12.262Z,17.00
2023-04-20T00:29:39.807Z,17.00
2023-04-20T00:32:08.253Z,17.10
2023-04-20T00:34:36.396Z,17.10
2023-04-20T00:37:04.158Z,17.10
2023-04-20T00:39:35.144Z,17.10
2023-04-20T00:42:09.409Z,17.10
2023-04-20T00:44:36.850Z,17.10
2023-04-20T00:47:04.319Z,17.10
2023-04-20T00:49:33.976Z,17.10
2023-04-20T00:52:01.794Z,17.10
2023-04-20T00:54:30.647Z,17.10
2023-04-20T00:57:00.205Z,17.10
2023-04-20T00:59:28.234Z,17.10
2023-04-20T01:01:56.150Z,17.10
2023-04-20T01:04:30.748Z,17.10
2023-04-20T01:06:59.095Z,17.10
2023-04-20T01:09:26.774Z,17.10
2023-04-20T01:11:54.216Z,17.00
2023-04-20T01:14:25.123Z,17.00
2023-04-20T01:16:52.611Z,17.00
2023-04-20T01:19:22.061Z,17.00
2023-04-20T01:21:49.800Z,16.90
2023-04-20T01:24:17.530Z,16.90
2023-04-20T01:26:45.047Z,16.90
2023-04-20T01:29:16.175Z,16.90
2023-04-20T01:31:49.758Z,16.90
2023-04-20T01:34:18.061Z,16.90
2023-04-20T01:36:46.065Z,16.90
2023-04-20T01:39:13.944Z,16.80
2023-04-20T01:41:41.825Z,16.80
2023-04-20T01:44:09.599Z,16.80
2023-04-20T01:46:41.171Z,16.80
2023-04-20T01:49:09.687Z,16.80
2023-04-20T01:51:37.908Z,16.80
2023-04-20T01:54:08.967Z,16.70
2023-04-20T01:56:36.568Z,16.70
2023-04-20T01:59:04.408Z,16.70
2023-04-20T02:01:32.245Z,16.60
2023-04-20T02:04:01.485Z,16.60
2023-04-20T02:06:33.232Z,16.60
2023-04-20T02:09:01.313Z,16.60
2023-04-20T02:11:29.448Z,16.50
2023-04-20T02:13:57.041Z,16.50
2023-04-20T02:16:24.981Z,16.50
2023-04-20T02:18:52.661Z,16.50
2023-04-20T02:21:20.496Z,16.40
2023-04-20T02:23:48.246Z,16.30
2023-04-20T02:26:17.133Z,16.20
2023-04-20T02:28:44.976Z,16.20
2023-04-20T02:31:12.847Z,16.20
2023-04-20T02:33:42.104Z,16.20
2023-04-20T02:36:10.057Z,16.30
2023-04-20T02:38:38.496Z,16.30
2023-04-20T02:41:21.236Z,16.30
2023-04-20T02:43:48.944Z,16.30
2023-04-20T02:46:16.555Z,16.30
2023-04-20T02:48:44.784Z,16.30
2023-04-20T02:51:12.938Z,16.40
2023-04-20T02:53:42.433Z,16.30
2023-04-20T02:56:11.830Z,16.30
2023-04-20T02:58:41.845Z,16.40
2023-04-20T03:01:14.750Z,16.40
2023-04-20T03:03:44.555Z,16.40
2023-04-20T03:06:12.831Z,16.40
2023-04-20T03:08:41.671Z,16.30
2023-04-20T03:11:15.154Z,16.40
2023-04-20T03:13:43.008Z,16.30
2023-04-20T03:16:11.227Z,16.30
2023-04-20T03:18:40.780Z,16.30
2023-04-20T03:21:12.434Z,16.30
2023-04-20T03:23:42.660Z,16.30
2023-04-20T03:26:10.554Z,16.30
2023-04-20T03:28:49.170Z,16.30
2023-04-20T03:31:19.789Z,16.30
2023-04-20T03:33:47.771Z,16.20
2023-04-20T03:36:15.666Z,16.20
2023-04-20T03:38:43.459Z,16.20
2023-04-20T03:41:12.613Z,16.20
2023-04-20T03:43:41.891Z,16.20
2023-04-20T03:46:10.628Z,16.20
2023-04-20T03:48:41.811Z,16.10
2023-04-20T03:51:09.737Z,16.10
2023-04-20T03:53:39.865Z,16.10
2023-04-20T03:56:09.218Z,16.10
2023-04-20T03:58:37.457Z,16.10
2023-04-20T04:01:08.138Z,16.10
2023-04-20T04:03:37.451Z,16.10
2023-04-20T04:06:05.894Z,16.00
2023-04-20T04:08:34.840Z,16.10
2023-04-20T04:11:03.075Z,16.10
2023-04-20T04:13:33.136Z,16.10
2023-04-20T04:16:01.339Z,16.00
2023-04-20T04:18:31.857Z,16.10
2023-04-20T04:21:01.045Z,16.10
2023-04-20T04:23:30.220Z,16.10
2023-04-20T04:26:03.281Z,16.10
2023-04-20T04:28:32.444Z,16.00
2023-04-20T04:31:08.997Z,16.00
2023-04-20T04:33:36.878Z,16.00
2023-04-20T04:36:06.386Z,16.00
2023-04-20T04:38:34.878Z,16.00
2023-04-20T04:41:02.959Z,16.00
2023-04-20T04:43:33.866Z,16.00
2023-04-20T04:46:09.684Z,16.00
2023-04-20T04:48:40.941Z,16.00
2023-04-20T04:51:09.743Z,16.00
2023-04-20T04:53:37.317Z,16.00
2023-04-20T04:56:06.583Z,16.00
2023-04-20T04:58:34.515Z,15.90
2023-04-20T05:01:22.254Z,16.00
2023-04-20T05:03:50.406Z,16.00
2023-04-20T05:06:19.196Z,16.00
2023-04-20T05:08:47.376Z,16.00
2023-04-20T05:11:25.920Z,16.00
2023-04-20T05:13:53.341Z,16.00
2023-04-20T05:16:22.391Z,16.00
2023-04-20T05:18:50.378Z,16.00
2023-04-20T05:21:18.152Z,16.00
2023-04-20T05:23:45.992Z,16.00
2023-04-20T05:26:13.896Z,16.00
2023-04-20T05:28:43.234Z,16.10
2023-04-20T05:31:15.094Z,16.10
2023-04-20T05:33:43.972Z,16.10
2023-04-20T05:36:12.016Z,16.10
2023-04-20T05:38:41.451Z,16.10
2023-04-20T05:41:09.867Z,16.10
2023-04-20T05:43:37.453Z,16.10
2023-04-20T05:46:08.733Z,16.10
2023-04-20T05:48:36.824Z,16.20
2023-04-20T05:51:04.644Z,16.10
2023-04-20T05:53:32.509Z,16.20
2023-04-20T05:56:00.312Z,16.20
2023-04-20T05:58:27.778Z,16.20
2023-04-20T06:00:55.215Z,16.30
2023-04-20T06:03:23.233Z,16.30
2023-04-20T06:05:51.558Z,16.30
2023-04-20T06:08:19.975Z,16.30
2023-04-20T06:10:47.772Z,16.40
2023-04-20T06:13:25.649Z,16.40
2023-04-20T06:15:54.328Z,16.40
2023-04-20T06:18:23.117Z,16.40
2023-04-20T06:20:54.244Z,16.40
2023-04-20T06:23:22.502Z,16.40
2023-04-20T06:26:08.998Z,16.40
2023-04-20T06:28:38.444Z,16.50
2023-04-20T06:31:07.019Z,16.50
2023-04-20T06:33:34.718Z,16.50
2023-04-20T06:36:03.709Z,16.50
2023-04-20T06:38:31.642Z,16.50
2023-04-20T06:41:00.989Z,16.60
2023-04-20T06:43:29.615Z,16.60
2023-04-20T06:45:57.544Z,16.60
2023-04-20T06:48:32.268Z,16.70
2023-04-20T06:50:56.177Z,16.80
2023-04-20T06:53:24.306Z,16.80
2023-04-20T06:55:53.889Z,16.80
2023-04-20T06:58:21.955Z,16.80
2023-04-20T07:00:49.798Z,16.90
2023-04-20T07:03:19.625Z,16.90
2023-04-20T07:05:47.429Z,16.90
2023-04-20T07:08:18.968Z,17.00
2023-04-20T07:10:47.361Z,17.10
2023-04-20T07:13:17.320Z,17.10
2023-04-20T07:15:47.104Z,17.10
2023-04-20T07:18:15.435Z,17.20
2023-04-20T07:20:43.369Z,17.20
2023-04-20T07:23:11.066Z,17.20
2023-04-20T07:25:39.182Z,17.30
2023-04-20T07:28:06.890Z,17.30
2023-04-20T07:30:34.822Z,17.40
2023-04-20T07:33:03.561Z,17.40
2023-04-20T07:35:34.931Z,17.40
2023-04-20T07:38:02.451Z,17.40
2023-04-20T07:40:49.961Z,17.50
2023-04-20T07:43:18.024Z,17.50
2023-04-20T07:45:45.623Z,17.50
2023-04-20T07:48:13.610Z,17.60
2023-04-20T07:50:41.543Z,17.60
2023-04-20T07:53:09.474Z,17.60
2023-04-20T07:55:45.357Z,17.60
2023-04-20T07:58:14.477Z,17.60
2023-04-20T08:00:42.216Z,17.60
2023-04-20T08:03:10.592Z,17.60
2023-04-20T08:05:41.176Z,17.70
2023-04-20T08:08:08.708Z,17.60
2023-04-20T08:10:38.283Z,17.60
2023-04-20T08:13:09.534Z,17.60
2023-04-20T08:15:37.555Z,17.60
2023-04-20T08:18:06.161Z,17.60
2023-04-20T08:23:01.980Z,17.70
2023-04-20T08:25:29.790Z,17.80
2023-04-20T08:27:58.000Z,17.80
2023-04-20T08:30:27.996Z,17.90
2023-04-20T08:32:56.003Z,17.90
2023-04-20T08:35:24.228Z,18.00
2023-04-20T08:37:52.066Z,18.10
2023-04-20T08:40:20.557Z,18.10
2023-04-20T08:42:49.096Z,18.20
2023-04-20T08:45:16.795Z,18.20
2023-04-20T08:47:46.112Z,18.30
2023-04-20T08:50:14.170Z,18.40
2023-04-20T08:52:42.185Z,18.40
2023-04-20T08:55:14.024Z,18.40
2023-04-20T08:57:42.824Z,18.50
2023-04-20T09:00:13.638Z,18.50
2023-04-20T09:02:53.093Z,18.50
2023-04-20T09:05:29.258Z,18.50
2023-04-20T09:08:02.362Z,18.50
2023-04-20T09:10:42.674Z,18.50
2023-04-20T09:13:12.961Z,18.50
2023-04-20T09:15:40.356Z,18.50
2023-04-20T09:18:15.753Z,18.40
2023-04-20T09:20:46.410Z,18.40
2023-04-20T09:23:16.500Z,18.40
2023-04-20T09:25:46.564Z,18.40
2023-04-20T09:28:14.350Z,18.40
2023-04-20T09:30:46.918Z,18.30
2023-04-20T09:33:17.442Z,18.30
2023-04-20T09:35:45.964Z,18.30
2023-04-20T09:38:16.451Z,18.30
2023-04-20T09:40:44.283Z,18.30
2023-04-20T09:43:20.306Z,18.30
2023-04-20T09:45:48.628Z,18.30
2023-04-20T09:48:19.304Z,18.40
2023-04-20T09:50:50.622Z,18.40
2023-04-20T09:53:18.942Z,18.40
2023-04-20T09:55:52.391Z,18.40
2023-04-20T09:58:21.616Z,18.40
2023-04-20T10:00:50.799Z,18.30
2023-04-20T10:03:20.332Z,18.30
2023-04-20T10:05:51.141Z,18.30
2023-04-20T10:08:18.492Z,18.30
2023-04-20T10:10:49.436Z,18.30
2023-04-20T10:13:19.166Z,18.30
2023-04-20T10:15:46.911Z,18.30
2023-04-20T10:18:20.475Z,18.30
2023-04-20T10:20:51.782Z,18.30
2023-04-20T10:23:20.301Z,18.20
2023-04-20T10:26:01.173Z,18.20
2023-04-20T10:28:43.890Z,18.20
2023-04-20T10:31:17.451Z,18.10
2023-04-20T10:33:54.614Z,18.10
2023-04-20T10:36:31.708Z,18.00
2023-04-20T10:39:00.793Z,18.00
2023-04-20T10:41:28.916Z,18.00
2023-04-20T10:44:09.053Z,17.90
2023-04-20T10:46:37.110Z,17.90
2023-04-20T10:49:05.815Z,17.80
2023-04-20T10:51:33.548Z,17.80
2023-04-20T10:54:05.425Z,17.70
2023-04-20T10:56:48.649Z,17.70
2023-04-20T10:59:21.735Z,17.70
2023-04-20T11:01:52.021Z,17.60
2023-04-20T11:04:32.497Z,17.60
2023-04-20T11:07:10.225Z,17.50
2023-04-20T11:09:38.980Z,17.50
2023-04-20T11:12:10.422Z,17.40
2023-04-20T11:14:41.434Z,17.40
2023-04-20T11:17:09.967Z,17.40
2023-04-20T11:19:37.441Z,17.40
2023-04-20T11:22:06.986Z,17.30
2023-04-20T11:24:35.515Z,17.30
2023-04-20T11:27:05.119Z,17.30
2023-04-20T11:29:35.776Z,17.20
2023-04-20T11:32:07.534Z,17.20
2023-04-20T11:34:38.057Z,17.10
2023-04-20T11:37:10.681Z,17.10
2023-04-20T11:39:38.273Z,17.10
2023-04-20T11:42:06.816Z,17.10
2023-04-20T11:44:36.803Z,17.00
2023-04-20T11:47:04.787Z,17.00
2023-04-20T11:49:32.528Z,17.00
2023-04-20T11:52:00.265Z,17.00
2023-04-20T11:54:28.830Z,17.00
2023-04-20T11:56:57.810Z,17.00
2023-04-20T11:59:25.795Z,17.00
2023-04-20T12:01:53.959Z,17.00
2023-04-20T12:04:22.281Z,16.90
2023-04-20T12:06:50.533Z,16.90
2023-04-20T12:09:19.040Z,16.90
2023-04-20T12:11:47.082Z,16.90
2023-04-20T12:14:15.309Z,16.90
2023-04-20T12:16:42.996Z,16.90
2023-04-20T12:19:10.643Z,16.90
2023-04-20T12:21:40.732Z,17.00
2023-04-20T12:24:09.544Z,17.00
2023-04-20T12:26:38.755Z,17.00
2023-04-20T12:29:07.693Z,17.00
2023-04-20T12:31:36.145Z,17.10
2023-04-20T12:34:04.416Z,17.10
2023-04-20T12:36:33.080Z,17.10
2023-04-20T12:39:04.385Z,17.00
2023-04-20T12:41:32.482Z,17.10
2023-04-20T12:44:02.609Z,17.10
2023-04-20T12:46:49.903Z,17.20
2023-04-20T12:49:19.181Z,17.20
2023-04-20T12:51:46.811Z,17.20
2023-04-20T12:54:15.942Z,17.30
2023-04-20T12:56:45.323Z,17.30
2023-04-20T12:59:13.072Z,17.30
2023-04-20T13:01:40.870Z,17.40
2023-04-20T13:04:09.080Z,17.40
2023-04-20T13:06:37.110Z,17.50
2023-04-20T13:09:05.548Z,17.60
2023-04-20T13:11:33.265Z,17.60
2023-04-20T13:14:01.147Z,17.70
2023-04-20T13:16:29.638Z,17.70
2023-04-20T13:19:01.740Z,17.80
2023-04-20T13:21:30.942Z,17.90
2023-04-20T13:23:59.052Z,18.00
2023-04-20T13:26:26.710Z,18.00
2023-04-20T13:28:57.923Z,18.10
2023-04-20T13:31:25.885Z,18.20
2023-04-20T13:33:55.557Z,18.20
2023-04-20T13:36:27.624Z,18.30
2023-04-20T13:38:56.142Z,18.30
2023-04-20T13:41:24.150Z,18.30
2023-04-20T13:43:51.967Z,18.20
2023-04-20T13:46:21.101Z,18.20
2023-04-20T13:48:49.133Z,18.10
2023-04-20T13:51:17.193Z,18.10
2023-04-20T13:53:44.926Z,18.10
2023-04-20T13:56:16.432Z,18.10
2023-04-20T13:58:45.158Z,18.10
2023-04-20T14:01:15.752Z,18.10
2023-04-20T14:03:47.007Z,18.10
2023-04-20T14:06:14.900Z,18.10
2023-04-20T14:08:45.714Z,18.10
2023-04-20T14:11:13.390Z,18.00
2023-04-20T14:13:42.524Z,17.90
2023-04-20T14:16:17.173Z,17.90
2023-04-20T14:18:45.548Z,17.90
2023-04-20T14:21:33.374Z,17.90
2023-04-20T14:24:01.748Z,17.90
2023-04-20T14:26:29.436Z,17.90
2023-04-20T14:28:57.971Z,17.90
2023-04-20T14:31:26.132Z,17.90
2023-04-20T14:33:55.336Z,17.90
2023-04-20T14:36:23.292Z,17.90
2023-04-20T14:38:51.239Z,17.90
2023-04-20T14:41:19.384Z,17.90
2023-04-20T14:43:47.058Z,17.80
2023-04-20T14:46:17.401Z,17.80
2023-04-20T14:48:46.485Z,17.80
2023-04-20T14:51:14.872Z,17.80
2023-04-20T14:53:42.705Z,17.80
2023-04-20T14:56:10.595Z,17.80
2023-04-20T14:58:38.325Z,17.80
2023-04-20T15:01:06.332Z,17.80
2023-04-20T15:03:34.243Z,17.80
2023-04-20T15:06:03.935Z,17.80
2023-04-20T15:08:31.443Z,17.90
2023-04-20T15:10:59.198Z,17.90
2023-04-20T15:13:30.363Z,18.00
2023-04-20T15:15:58.498Z,18.00
2023-04-20T15:18:26.375Z,18.10
2023-04-20T15:20:54.384Z,18.30
2023-04-20T15:23:21.790Z,18.60
2023-04-20T15:25:49.812Z,19.00
2023-04-20T15:28:17.861Z,19.20
2023-04-20T15:30:45.840Z,19.30
2023-04-20T15:33:14.107Z,19.30
2023-04-20T15:35:42.179Z,19.20
2023-04-20T15:38:10.325Z,19.10
2023-04-20T15:40:39.241Z,19.20
2023-04-20T15:43:06.845Z,19.20
2023-04-20T15:45:37.992Z,19.20
2023-04-20T15:48:06.728Z,19.00
2023-04-20T15:50:35.897Z,18.80
2023-04-20T15:53:03.769Z,18.70
2023-04-20T15:55:32.991Z,18.50
2023-04-20T15:58:01.161Z,18.80
2023-04-20T16:00:29.222Z,18.90
2023-04-20T16:02:57.417Z,18.90
2023-04-20T16:05:27.925Z,18.80
2023-04-20T16:07:56.778Z,18.70
2023-04-20T16:10:27.406Z,18.60
2023-04-20T16:12:57.436Z,18.50
2023-04-20T16:15:25.535Z,18.40
2023-04-20T16:17:54.792Z,18.30
2023-04-20T16:20:23.095Z,18.30
2023-04-20T16:22:50.811Z,18.40
2023-04-20T16:25:24.683Z,18.40
2023-04-20T16:27:52.285Z,18.40
2023-04-20T16:30:20.202Z,18.40
2023-04-20T16:32:48.366Z,18.40
2023-04-20T16:35:16.466Z,18.20
2023-04-20T16:37:45.552Z,18.20
2023-04-20T16:40:13.416Z,18.00
2023-04-20T16:42:41.161Z,18.00
2023-04-20T16:45:09.490Z,18.00
2023-04-20T16:47:37.345Z,17.90
2023-04-20T16:50:07.495Z,17.80
2023-04-20T16:52:35.956Z,17.80
2023-04-20T16:55:04.211Z,17.70
2023-04-20T16:57:32.627Z,17.60
2023-04-20T17:00:04.231Z,17.50
2023-04-20T17:02:34.230Z,17.40
2023-04-20T17:05:03.291Z,17.30
2023-04-20T17:07:34.650Z,17.20
2023-04-20T17:10:02.580Z,17.10
2023-04-20T17:12:31.508Z,17.10
2023-04-20T17:14:59.528Z,16.90
2023-04-20T17:17:28.616Z,16.90
2023-04-20T17:19:56.502Z,16.90
2023-04-20T17:22:26.462Z,16.90
2023-04-20T17:25:07.970Z,16.80
2023-04-20T17:27:36.030Z,16.80
2023-04-20T17:30:04.911Z,16.80
2023-04-20T17:32:32.964Z,16.80
2023-04-20T17:35:00.663Z,16.80
2023-04-20T17:37:28.767Z,16.70
2023-04-20T17:39:56.688Z,16.70
2023-04-20T17:42:24.691Z,16.70
2023-04-20T17:44:52.534Z,16.70
2023-04-20T17:47:20.570Z,16.70
2023-04-20T17:50:01.638Z,16.70
2023-04-20T17:52:29.821Z,16.70
2023-04-20T17:55:00.304Z,16.70
2023-04-20T17:57:30.626Z,16.70
2023-04-20T17:59:58.213Z,16.80
2023-04-20T18:02:26.727Z,16.80
2023-04-20T18:04:56.678Z,16.70
2023-04-20T18:07:24.376Z,16.70
2023-04-20T18:09:52.068Z,16.70
2023-04-20T18:12:22.617Z,16.70
2023-04-20T18:14:51.159Z,16.70
2023-04-20T18:17:21.286Z,16.70
2023-04-20T18:19:49.443Z,16.70
2023-04-20T18:22:19.112Z,16.60
2023-04-20T18:24:46.958Z,16.60
2023-04-20T18:27:17.805Z,16.60
2023-04-20T18:29:45.965Z,16.60
2023-04-20T18:32:19.418Z,16.60
2023-04-20T18:34:48.914Z,16.50
2023-04-20T18:37:16.997Z,16.50
2023-04-20T18:39:44.784Z,16.50
2023-04-20T18:42:12.915Z,16.50
2023-04-20T18:44:40.983Z,16.50
2023-04-20T18:47:08.936Z,16.40
2023-04-20T18:49:36.803Z,16.40
2023-04-20T18:52:04.890Z,16.30
2023-04-20T18:54:33.228Z,16.30
2023-04-20T18:57:02.163Z,16.30
2023-04-20T18:59:30.532Z,16.20
2023-04-20T19:01:58.500Z,16.20
2023-04-20T19:04:26.574Z,16.20
2023-04-20T19:06:55.030Z,16.20
2023-04-20T19:09:23.354Z,16.10
2023-04-20T19:11:51.300Z,16.20
2023-04-20T19:14:19.275Z,16.10
2023-04-20T19:16:47.427Z,16.10
2023-04-20T19:19:15.422Z,16.10
2023-04-20T19:21:43.323Z,16.00
2023-04-20T19:24:11.313Z,16.00
2023-04-20T19:26:42.055Z,16.00
2023-04-20T19:29:09.803Z,16.00
2023-04-20T19:31:38.168Z,16.00
2023-04-20T19:34:06.597Z,16.10
2023-04-20T19:36:34.699Z,16.10
2023-04-20T19:39:02.654Z,16.10
2023-04-20T19:41:30.419Z,16.20
2023-04-20T19:44:00.540Z,16.10
2023-04-20T19:46:28.439Z,16.20
2023-04-20T19:48:56.871Z,16.20
2023-04-20T19:51:25.780Z,16.10
2023-04-20T19:53:54.523Z,16.10
2023-04-20T19:56:22.162Z,16.10
2023-04-20T19:58:50.458Z,16.10
2023-04-20T20:01:20.145Z,16.10
2023-04-20T20:03:48.156Z,16.10
2023-04-20T20:06:16.069Z,16.00
2023-04-20T20:08:44.173Z,16.00
2023-04-20T20:11:11.882Z,16.00
2023-04-20T20:13:39.721Z,16.00
2023-04-20T20:16:08.429Z,16.00
2023-04-20T20:18:37.285Z,16.00
2023-04-20T20:21:05.085Z,15.90
2023-04-20T20:23:32.783Z,15.90
2023-04-20T20:26:01.590Z,15.90
2023-04-20T20:28:32.804Z,15.80
2023-04-20T20:31:01.600Z,15.90
2023-04-20T20:33:29.326Z,15.80
2023-04-20T20:35:58.652Z,15.90
2023-04-20T20:38:26.726Z,15.80
2023-04-20T20:40:55.408Z,15.80
2023-04-20T20:43:25.276Z,15.80
2023-04-20T20:45:56.416Z,15.80
2023-04-20T20:48:24.124Z,15.80
2023-04-20T20:50:55.124Z,15.80
2023-04-20T20:53:22.935Z,15.80
2023-04-20T20:55:50.680Z,15.80
2023-04-20T20:58:18.109Z,15.80
2023-04-20T21:00:47.534Z,15.70
2023-04-20T21:03:18.422Z,15.80
2023-04-20T21:05:46.300Z,15.70
2023-04-20T21:08:14.127Z,15.70
2023-04-20T21:10:42.675Z,15.70
2023-04-20T21:13:10.795Z,15.70
2023-04-20T21:15:38.882Z,15.70
2023-04-20T21:18:07.166Z,15.70
2023-04-20T21:20:35.129Z,15.60
2023-04-20T21:23:03.839Z,15.60
2023-04-20T21:25:42.744Z,15.60
2023-04-20T21:28:10.333Z,15.60
2023-04-20T21:30:39.583Z,15.60
2023-04-20T21:33:07.473Z,15.60
2023-04-20T21:35:35.620Z,15.60
2023-04-20T21:38:06.202Z,15.60
2023-04-20T21:40:34.747Z,15.60
2023-04-20T21:43:02.942Z,15.60
2023-04-20T21:45:33.847Z,15.50
2023-04-20T21:48:02.018Z,15.40
2023-04-20T21:50:32.510Z,15.40
2023-04-20T21:53:01.569Z,15.40
2023-04-20T21:55:31.911Z,15.40
2023-04-20T21:58:00.160Z,15.50
2023-04-20T22:00:28.736Z,15.50
2023-04-20T22:02:56.686Z,15.50
2023-04-20T22:05:28.960Z,15.50
2023-04-20T22:07:58.352Z,15.50
2023-04-20T22:10:27.319Z,15.50
2023-04-20T22:12:55.534Z,15.50
2023-04-20T22:15:23.721Z,15.50
2023-04-20T22:17:51.831Z,15.50
2023-04-20T22:20:20.472Z,15.40
2023-04-20T22:22:48.383Z,15.40
2023-04-20T22:25:19.490Z,15.40
2023-04-20T22:27:47.528Z,15.50
2023-04-20T22:30:16.106Z,15.50
2023-04-20T22:32:44.347Z,15.50
2023-04-20T22:35:12.070Z,15.50
2023-04-20T22:37:40.237Z,15.50
2023-04-20T22:40:09.133Z,15.50
2023-04-20T22:42:37.202Z,15.50
2023-04-20T22:45:11.838Z,15.50
2023-04-20T22:47:41.929Z,15.50
2023-04-20T22:53:07.173Z,15.50
2023-04-20T22:55:35.188Z,15.50
2023-04-20T22:58:03.222Z,15.60
2023-04-20T23:00:34.690Z,15.60
2023-04-20T23:03:02.231Z,15.60
2023-04-20T23:05:34.023Z,15.60
2023-04-20T23:08:01.854Z,15.60
2023-04-20T23:10:31.802Z,15.60
2023-04-20T23:12:59.604Z,15.60
2023-04-20T23:15:30.878Z,15.60
2023-04-20T23:17:58.695Z,15.60
2023-04-20T23:20:27.104Z,15.60
2023-04-20T23:22:54.473Z,15.60
2023-04-20T23:25:22.475Z,15.60
2023-04-20T23:27:51.319Z,15.60
2023-04-20T23:30:22.291Z,15.60
2023-04-20T23:32:50.077Z,15.60
2023-04-20T23:35:19.290Z,15.60
2023-04-20T23:37:46.971Z,15.60
2023-04-20T23:40:14.909Z,15.50
2023-04-20T23:42:42.635Z,15.50
2023-04-20T23:45:13.045Z,15.60
2023-04-20T23:47:40.966Z,15.50
2023-04-20T23:50:09.827Z,15.50
2023-04-20T23:52:38.005Z,15.50
2023-04-20T23:55:06.815Z,15.50
2023-04-20T23:57:34.777Z,15.50
